createdAt,value
2022-09-12T00:02:17.966Z,8.71
2022-09-12T00:05:23.645Z,8.67
2022-09-12T00:08:29.285Z,8.63
2022-09-12T00:11:34.519Z,8.60
2022-09-12T00:14:40.373Z,8.56
2022-09-12T00:17:46.477Z,8.54
2022-09-12T00:20:55.217Z,8.52
2022-09-12T00:24:01.642Z,8.47
2022-09-12T00:27:07.954Z,8.40
2022-09-12T00:30:16.896Z,8.35
2022-09-12T00:33:22.532Z,8.30
2022-09-12T00:36:28.065Z,8.28
2022-09-12T00:39:34.421Z,8.25
2022-09-12T00:42:40.483Z,8.21
2022-09-12T00:45:46.597Z,8.18
2022-09-12T00:49:11.644Z,8.17
2022-09-12T00:52:17.146Z,8.16
2022-09-12T00:55:23.108Z,8.16
2022-09-12T00:58:29.441Z,8.19
2022-09-12T01:01:35.898Z,8.18
2022-09-12T01:04:41.568Z,8.19
2022-09-12T01:07:48.661Z,8.20
2022-09-12T01:10:55.097Z,8.22
2022-09-12T01:14:01.288Z,8.23
2022-09-12T01:17:07.034Z,8.25
2022-09-12T01:20:13.481Z,8.23
2022-09-12T01:23:19.144Z,8.25
2022-09-12T01:26:26.396Z,8.25
2022-09-12T01:29:31.868Z,8.25
2022-09-12T01:32:37.402Z,8.25
2022-09-12T01:35:43.177Z,8.24
2022-09-12T01:38:49.169Z,8.21
2022-09-12T01:41:56.297Z,8.19
2022-09-12T01:45:03.462Z,8.18
2022-09-12T01:48:09.332Z,8.19
2022-09-12T01:51:15.091Z,8.17
2022-09-12T01:54:20.899Z,8.16
2022-09-12T01:57:27.281Z,8.16
2022-09-12T02:00:33.761Z,8.16
2022-09-12T02:03:39.556Z,8.14
2022-09-12T02:06:46.405Z,8.08
2022-09-12T02:09:52.507Z,8.01
2022-09-12T02:13:01.711Z,7.95
2022-09-12T02:16:08.107Z,7.91
2022-09-12T02:19:14.048Z,7.88
2022-09-12T02:22:19.414Z,7.86
2022-09-12T02:25:25.260Z,7.82
2022-09-12T02:28:31.956Z,7.80
2022-09-12T02:31:38.353Z,7.75
2022-09-12T02:34:44.057Z,7.71
2022-09-12T02:37:50.078Z,7.67
2022-09-12T02:40:58.485Z,7.64
2022-09-12T02:44:04.964Z,7.60
2022-09-12T02:47:13.778Z,7.59
2022-09-12T02:50:19.269Z,7.57
2022-09-12T02:53:24.874Z,7.58
2022-09-12T02:56:30.433Z,7.59
2022-09-12T02:59:36.412Z,7.56
2022-09-12T03:02:42.228Z,7.55
2022-09-12T03:06:01.928Z,7.51
2022-09-12T03:09:07.360Z,7.49
2022-09-12T03:12:13.311Z,7.46
2022-09-12T03:15:20.792Z,7.44
2022-09-12T03:18:26.635Z,7.39
2022-09-12T03:21:32.345Z,7.36
2022-09-12T03:24:38.284Z,7.34
2022-09-12T03:27:44.022Z,7.32
2022-09-12T03:30:51.578Z,7.29
2022-09-12T03:33:57.288Z,7.26
2022-09-12T03:37:09.391Z,7.23
2022-09-12T03:40:15.623Z,7.21
2022-09-12T03:43:21.593Z,7.17
2022-09-12T03:46:27.777Z,7.12
2022-09-12T03:49:33.372Z,7.07
2022-09-12T03:52:39.087Z,7.02
2022-09-12T03:55:45.513Z,7.00
2022-09-12T03:58:51.780Z,6.99
2022-09-12T04:01:59.070Z,6.98
2022-09-12T04:05:05.185Z,6.98
2022-09-12T04:08:10.997Z,7.02
2022-09-12T04:11:16.535Z,7.02
2022-09-12T04:14:22.047Z,7.07
2022-09-12T04:17:28.352Z,7.09
2022-09-12T04:20:34.525Z,7.14
2022-09-12T04:23:41.428Z,7.21
2022-09-12T04:26:46.962Z,7.29
2022-09-12T04:29:54.259Z,7.39
2022-09-12T04:33:01.549Z,7.47
2022-09-12T04:36:11.364Z,7.59
2022-09-12T04:39:23.591Z,7.69
2022-09-12T04:42:29.264Z,7.77
2022-09-12T04:45:34.858Z,7.86
2022-09-12T04:48:41.040Z,7.96
2022-09-12T04:51:47.154Z,8.05
2022-09-12T04:54:53.394Z,8.10
2022-09-12T04:57:59.378Z,8.15
2022-09-12T05:01:06.459Z,8.18
2022-09-12T05:04:13.113Z,8.24
2022-09-12T05:07:19.419Z,8.34
2022-09-12T05:10:25.508Z,8.44
2022-09-12T05:13:31.335Z,8.53
2022-09-12T05:16:36.785Z,8.64
2022-09-12T05:19:42.884Z,8.76
2022-09-12T05:22:48.523Z,8.88
2022-09-12T05:25:53.953Z,9.02
2022-09-12T05:28:59.564Z,9.13
2022-09-12T05:32:09.873Z,9.23
2022-09-12T05:35:15.844Z,9.32
2022-09-12T05:38:22.319Z,9.43
2022-09-12T05:41:29.447Z,9.51
2022-09-12T05:44:34.722Z,9.62
2022-09-12T05:47:40.666Z,9.76
2022-09-12T05:50:47.070Z,9.87
2022-09-12T05:53:54.058Z,9.99
2022-09-12T05:57:00.227Z,10.14
2022-09-12T06:00:08.279Z,10.26
2022-09-12T06:03:17.848Z,10.32
2022-09-12T06:06:24.677Z,10.46
2022-09-12T06:09:33.636Z,10.61
2022-09-12T06:12:39.582Z,10.78
2022-09-12T06:15:45.615Z,10.93
2022-09-12T06:18:50.937Z,11.08
2022-09-12T06:21:59.138Z,11.24
2022-09-12T06:25:05.246Z,11.42
2022-09-12T06:28:11.403Z,11.61
2022-09-12T06:31:16.856Z,11.76
2022-09-12T06:34:22.513Z,11.88
2022-09-12T06:37:29.293Z,11.97
2022-09-12T06:40:36.007Z,12.11
2022-09-12T06:43:41.689Z,12.26
2022-09-12T06:46:47.691Z,12.44
2022-09-12T06:49:53.129Z,12.60
2022-09-12T06:52:59.664Z,12.76
2022-09-12T06:56:05.470Z,12.86
2022-09-12T06:59:11.279Z,13.00
2022-09-12T07:02:18.226Z,13.08
2022-09-12T07:05:23.526Z,13.17
2022-09-12T07:08:31.926Z,13.25
2022-09-12T07:11:38.220Z,13.38
2022-09-12T07:14:44.199Z,13.52
2022-09-12T07:17:50.141Z,13.70
2022-09-12T07:20:56.037Z,13.87
2022-09-12T07:24:01.832Z,14.03
2022-09-12T07:27:07.279Z,14.21
2022-09-12T07:30:12.825Z,14.46
2022-09-12T07:33:23.555Z,14.61
2022-09-12T07:36:29.714Z,14.79
2022-09-12T07:39:36.686Z,14.99
2022-09-12T07:42:44.504Z,15.14
2022-09-12T07:45:50.182Z,15.30
2022-09-12T07:48:55.919Z,15.38
2022-09-12T07:52:01.292Z,15.49
2022-09-12T07:55:07.244Z,15.64
2022-09-12T07:58:13.304Z,15.81
2022-09-12T08:01:19.042Z,16.01
2022-09-12T08:04:25.170Z,16.25
2022-09-12T08:07:31.014Z,16.37
2022-09-12T08:10:37.489Z,16.53
2022-09-12T08:13:43.512Z,16.64
2022-09-12T08:16:49.375Z,16.83
2022-09-12T08:19:56.362Z,16.99
2022-09-12T08:23:01.899Z,17.08
2022-09-12T08:26:07.456Z,17.17
2022-09-12T08:29:13.720Z,17.34
2022-09-12T08:32:19.136Z,17.49
2022-09-12T08:35:24.524Z,17.67
2022-09-12T08:38:29.897Z,17.77
2022-09-12T08:45:00.893Z,18.17
2022-09-12T08:48:18.744Z,18.44
2022-09-12T08:51:24.239Z,18.67
2022-09-12T08:54:32.422Z,18.85
2022-09-12T08:57:38.271Z,18.86
2022-09-12T09:00:43.617Z,18.90
2022-09-12T09:03:56.675Z,18.89
2022-09-12T09:07:02.200Z,18.91
2022-09-12T09:10:08.051Z,19.02
2022-09-12T09:13:13.941Z,19.07
2022-09-12T09:16:19.602Z,19.16
2022-09-12T09:19:25.462Z,19.18
2022-09-12T09:22:33.212Z,19.16
2022-09-12T09:25:38.957Z,19.16
2022-09-12T09:28:45.841Z,19.26
2022-09-12T09:31:51.575Z,19.39
2022-09-12T09:34:57.660Z,19.53
2022-09-12T09:38:03.708Z,19.72
2022-09-12T09:41:09.345Z,19.83
2022-09-12T09:44:19.669Z,19.89
2022-09-12T09:47:25.678Z,19.98
2022-09-12T09:50:31.921Z,20.11
2022-09-12T09:53:37.574Z,20.13
2022-09-12T09:56:44.645Z,20.18
2022-09-12T09:59:53.231Z,20.25
2022-09-12T10:02:59.124Z,20.28
2022-09-12T10:06:04.494Z,20.33
2022-09-12T10:09:10.456Z,20.35
2022-09-12T10:12:16.162Z,20.45
2022-09-12T10:15:22.538Z,20.53
2022-09-12T10:18:28.264Z,20.63
2022-09-12T10:21:33.951Z,20.70
2022-09-12T10:24:39.599Z,20.71
2022-09-12T10:27:44.889Z,20.77
2022-09-12T10:30:52.035Z,20.84
2022-09-12T10:33:58.418Z,20.89
2022-09-12T10:37:04.202Z,20.93
2022-09-12T10:40:10.128Z,20.98
2022-09-12T10:43:15.834Z,20.99
2022-09-12T10:46:22.095Z,20.97
2022-09-12T10:49:41.913Z,20.94
2022-09-12T10:52:48.436Z,20.99
2022-09-12T10:55:53.911Z,20.93
2022-09-12T10:59:00.903Z,20.93
2022-09-12T11:02:07.057Z,20.93
2022-09-12T11:05:12.562Z,20.90
2022-09-12T11:08:17.921Z,20.88
2022-09-12T11:11:23.406Z,20.92
2022-09-12T11:14:30.395Z,21.01
2022-09-12T11:17:36.398Z,20.99
2022-09-12T11:21:02.434Z,21.02
2022-09-12T11:24:08.505Z,21.07
2022-09-12T11:27:14.212Z,21.16
2022-09-12T11:30:22.482Z,21.29
2022-09-12T11:33:28.771Z,21.43
2022-09-12T11:36:40.683Z,21.45
2022-09-12T11:39:46.235Z,21.45
2022-09-12T11:42:52.556Z,21.47
2022-09-12T11:45:58.693Z,21.48
2022-09-12T11:49:05.199Z,21.54
2022-09-12T11:52:11.363Z,21.60
2022-09-12T11:55:18.215Z,21.62
2022-09-12T11:58:23.948Z,21.67
2022-09-12T12:01:29.872Z,21.74
2022-09-12T12:04:35.558Z,21.81
2022-09-12T12:07:45.438Z,21.75
2022-09-12T12:10:51.237Z,21.63
2022-09-12T12:13:57.544Z,21.50
2022-09-12T12:17:02.973Z,21.40
2022-09-12T12:20:09.930Z,21.32
2022-09-12T12:23:15.535Z,21.32
2022-09-12T12:26:21.412Z,21.25
2022-09-12T12:29:29.201Z,21.26
2022-09-12T12:32:35.009Z,21.30
2022-09-12T12:35:41.378Z,21.36
2022-09-12T12:38:51.896Z,21.51
2022-09-12T12:41:57.828Z,21.58
2022-09-12T12:45:04.124Z,21.65
2022-09-12T12:48:09.696Z,21.75
2022-09-12T12:51:15.745Z,21.75
2022-09-12T12:54:24.113Z,21.75
2022-09-12T12:57:32.532Z,21.82
2022-09-12T13:00:39.765Z,21.88
2022-09-12T13:03:46.612Z,21.89
2022-09-12T13:06:53.423Z,21.97
2022-09-12T13:09:59.798Z,22.08
2022-09-12T13:13:05.365Z,22.16
2022-09-12T13:16:11.282Z,22.28
2022-09-12T13:19:18.574Z,22.37
2022-09-12T13:22:24.990Z,22.37
2022-09-12T13:25:30.607Z,22.28
2022-09-12T13:28:36.752Z,22.24
2022-09-12T13:31:47.141Z,22.22
2022-09-12T13:34:53.428Z,22.27
2022-09-12T13:38:00.040Z,22.30
2022-09-12T13:41:06.226Z,22.27
2022-09-12T13:44:13.373Z,22.17
2022-09-12T13:47:19.430Z,22.12
2022-09-12T13:50:25.157Z,22.02
2022-09-12T13:53:34.364Z,21.93
2022-09-12T13:56:40.760Z,21.87
2022-09-12T13:59:46.549Z,21.82
2022-09-12T14:03:12.328Z,21.73
2022-09-12T14:06:19.865Z,21.68
2022-09-12T14:09:28.237Z,21.66
2022-09-12T14:12:35.094Z,21.60
2022-09-12T14:15:40.745Z,21.60
2022-09-12T14:18:47.651Z,21.56
2022-09-12T14:21:53.459Z,21.54
2022-09-12T14:28:26.190Z,21.32
2022-09-12T14:31:32.656Z,21.24
2022-09-12T14:34:38.443Z,21.15
2022-09-12T14:37:43.906Z,21.06
2022-09-12T14:40:49.966Z,20.99
2022-09-12T14:43:55.464Z,20.93
2022-09-12T14:47:02.065Z,20.85
2022-09-12T14:50:11.103Z,20.83
2022-09-12T14:53:17.356Z,20.85
2022-09-12T14:56:23.460Z,20.88
2022-09-12T14:59:29.824Z,20.89
2022-09-12T15:02:36.222Z,20.92
2022-09-12T15:05:41.681Z,20.95
2022-09-12T15:08:47.710Z,20.92
2022-09-12T15:11:56.774Z,20.85
2022-09-12T15:15:09.783Z,20.78
2022-09-12T15:18:15.888Z,20.69
2022-09-12T15:21:21.540Z,20.62
2022-09-12T15:24:27.839Z,20.56
2022-09-12T15:27:35.682Z,20.51
2022-09-12T15:30:41.312Z,20.42
2022-09-12T15:33:47.129Z,20.34
2022-09-12T15:36:53.036Z,20.28
2022-09-12T15:40:01.345Z,20.18
2022-09-12T15:43:13.879Z,20.11
2022-09-12T15:46:20.209Z,20.00
2022-09-12T15:49:29.227Z,19.86
2022-09-12T15:52:35.080Z,19.75
2022-09-12T15:59:12.086Z,19.52
2022-09-12T16:02:19.463Z,19.47
2022-09-12T16:05:30.416Z,19.39
2022-09-12T16:08:36.376Z,19.32
2022-09-12T16:11:42.593Z,19.26
2022-09-12T16:14:55.805Z,19.20
2022-09-12T16:18:02.223Z,19.15
2022-09-12T16:21:15.831Z,19.10
2022-09-12T16:24:21.483Z,19.06
2022-09-12T16:27:30.228Z,19.01
2022-09-12T16:30:45.337Z,18.97
2022-09-12T16:33:51.465Z,18.89
2022-09-12T16:36:57.508Z,18.83
2022-09-12T16:40:03.507Z,18.74
2022-09-12T16:43:09.216Z,18.65
2022-09-12T16:46:19.594Z,18.58
2022-09-12T16:49:25.217Z,18.46
2022-09-12T16:52:31.397Z,18.37
2022-09-12T16:55:36.665Z,18.28
2022-09-12T16:58:42.517Z,18.17
2022-09-12T17:02:02.527Z,18.07
2022-09-12T17:05:08.763Z,17.96
2022-09-12T17:08:14.597Z,17.85
2022-09-12T17:11:19.756Z,17.74
2022-09-12T17:14:25.802Z,17.64
2022-09-12T17:17:40.658Z,17.57
2022-09-12T17:20:46.328Z,17.49
2022-09-12T17:23:51.800Z,17.41
2022-09-12T17:26:57.322Z,17.34
2022-09-12T17:30:02.973Z,17.28
2022-09-12T17:33:14.793Z,17.21
2022-09-12T17:36:21.781Z,17.14
2022-09-12T17:39:27.620Z,17.06
2022-09-12T17:42:33.395Z,16.99
2022-09-12T17:45:40.549Z,16.94
2022-09-12T17:48:46.673Z,16.91
2022-09-12T17:51:52.654Z,16.86
2022-09-12T17:54:58.508Z,16.81
2022-09-12T17:58:07.960Z,16.78
2022-09-12T18:01:31.544Z,16.74
2022-09-12T18:04:37.952Z,16.73
2022-09-12T18:07:44.335Z,16.69
2022-09-12T18:10:52.832Z,16.65
2022-09-12T18:13:58.469Z,16.62
2022-09-12T18:17:04.697Z,16.61
2022-09-12T18:20:10.657Z,16.60
2022-09-12T18:23:15.928Z,16.59
2022-09-12T18:26:22.469Z,16.57
2022-09-12T18:29:28.093Z,16.55
2022-09-12T18:32:35.849Z,16.51
2022-09-12T18:35:42.088Z,16.48
2022-09-12T18:38:47.953Z,16.46
2022-09-12T18:41:53.984Z,16.44
2022-09-12T18:45:00.222Z,16.43
2022-09-12T18:48:06.669Z,16.39
2022-09-12T18:51:12.953Z,16.37
2022-09-12T18:54:19.146Z,16.34
2022-09-12T18:57:24.940Z,16.30
2022-09-12T19:00:30.815Z,16.26
2022-09-12T19:03:36.597Z,16.26
2022-09-12T19:06:43.353Z,16.20
2022-09-12T19:09:49.284Z,16.19
2022-09-12T19:12:54.843Z,16.16
2022-09-12T19:16:00.701Z,16.15
2022-09-12T19:19:22.741Z,16.12
2022-09-12T19:22:29.401Z,16.12
2022-09-12T19:25:35.090Z,16.11
2022-09-12T19:28:43.524Z,16.10
2022-09-12T19:31:48.984Z,16.11
2022-09-12T19:34:54.589Z,16.09
2022-09-12T19:38:01.347Z,16.04
2022-09-12T19:41:07.489Z,15.99
2022-09-12T19:44:13.129Z,15.97
2022-09-12T19:47:18.747Z,15.91
2022-09-12T19:50:25.318Z,15.86
2022-09-12T19:53:32.040Z,15.86
2022-09-12T19:56:38.409Z,15.83
2022-09-12T19:59:45.281Z,15.80
2022-09-12T20:02:51.445Z,15.79
2022-09-12T20:05:57.301Z,15.75
2022-09-12T20:09:08.694Z,15.75
2022-09-12T20:12:15.271Z,15.73
2022-09-12T20:15:21.308Z,15.68
2022-09-12T20:18:26.941Z,15.63
2022-09-12T20:21:34.334Z,15.58
2022-09-12T20:24:41.427Z,15.53
2022-09-12T20:27:48.568Z,15.51
2022-09-12T20:30:54.415Z,15.51
2022-09-12T20:34:00.088Z,15.48
2022-09-12T20:37:08.529Z,15.43
2022-09-12T20:40:14.988Z,15.41
2022-09-12T20:43:22.807Z,15.34
2022-09-12T20:46:28.978Z,15.32
2022-09-12T20:49:39.160Z,15.30
2022-09-12T20:52:44.912Z,15.30
2022-09-12T20:55:50.996Z,15.31
2022-09-12T20:58:57.450Z,15.28
2022-09-12T21:02:03.275Z,15.29
2022-09-12T21:05:09.095Z,15.25
2022-09-12T21:08:14.715Z,15.26
2022-09-12T21:11:20.414Z,15.24
2022-09-12T21:14:25.777Z,15.24
2022-09-12T21:17:31.559Z,15.25
2022-09-12T21:20:37.143Z,15.22
2022-09-12T21:23:42.625Z,15.24
2022-09-12T21:26:49.053Z,15.23
2022-09-12T21:29:56.333Z,15.22
2022-09-12T21:33:01.892Z,15.20
2022-09-12T21:36:07.395Z,15.19
2022-09-12T21:39:15.519Z,15.16
2022-09-12T21:42:21.888Z,15.19
2022-09-12T21:45:28.111Z,15.21
2022-09-12T21:48:34.507Z,15.21
2022-09-12T21:51:40.056Z,15.21
2022-09-12T21:54:45.759Z,15.22
2022-09-12T21:57:52.352Z,15.20
2022-09-12T22:01:01.011Z,15.17
2022-09-12T22:04:06.845Z,15.17
2022-09-12T22:07:16.485Z,15.12
2022-09-12T22:10:26.626Z,15.10
2022-09-12T22:13:33.937Z,15.10
2022-09-12T22:16:40.537Z,15.06
2022-09-12T22:19:47.032Z,15.03
2022-09-12T22:23:10.117Z,15.01
2022-09-12T22:26:15.669Z,15.00
2022-09-12T22:29:22.917Z,14.97
2022-09-12T22:32:28.601Z,14.98
2022-09-12T22:35:34.245Z,14.97
2022-09-12T22:38:39.992Z,14.94
2022-09-12T22:41:45.519Z,14.93
2022-09-12T22:44:51.499Z,14.90
2022-09-12T22:48:00.542Z,14.88
2022-09-12T22:51:07.714Z,14.84
2022-09-12T22:54:13.446Z,14.80
2022-09-12T22:57:19.186Z,14.78
2022-09-12T23:00:27.821Z,14.73
2022-09-12T23:03:33.525Z,14.71
2022-09-12T23:06:39.146Z,14.66
2022-09-12T23:09:46.333Z,14.64
2022-09-12T23:12:52.362Z,14.60
2022-09-12T23:15:58.396Z,14.57
2022-09-12T23:19:04.393Z,14.56
2022-09-12T23:22:09.956Z,14.49
2022-09-12T23:25:15.560Z,14.42
2022-09-12T23:28:21.622Z,14.41
2022-09-12T23:31:29.874Z,14.37
2022-09-12T23:34:35.527Z,14.35
2022-09-12T23:37:42.219Z,14.31
2022-09-12T23:40:47.640Z,14.30
2022-09-12T23:43:53.241Z,14.26
2022-09-12T23:47:03.646Z,14.23
2022-09-12T23:50:09.143Z,14.18
2022-09-12T23:53:16.207Z,14.15
2022-09-12T23:56:23.190Z,14.13
2022-09-12T23:59:31.179Z,14.10
